Time;durP1;ratioP1;P1;durP2;ratioP2;P2;SDS_P1;SDS_P2;PMS_P1;PMS_P2;Temp;Humidity;BMP_temperature;BMP_pressure;BME280_temperature;BME280_humidity;BME280_pressure;Samples;Min_cycle;Max_cycle;Signal;HPM_P1;HPM_P2
2021/07/16 00:00:21;;;;;;;8.00;5.68;;;15.50;99.90;;;;;;5034044;28;20520;-75
2021/07/16 00:02:48;;;;;;;8.75;5.20;;;15.50;99.90;;;;;;5032622;28;20026;-74
2021/07/16 00:05:14;;;;;;;9.23;4.90;;;15.60;99.90;;;;;;5032377;28;20033;-74
2021/07/16 00:07:41;;;;;;;10.43;5.47;;;15.70;99.90;;;;;;5033889;28;20029;-74
2021/07/16 00:10:08;;;;;;;8.60;5.30;;;15.60;99.90;;;;;;5032758;28;20091;-76
2021/07/16 00:12:35;;;;;;;7.75;5.03;;;15.70;99.90;;;;;;5032633;28;20040;-76
2021/07/16 00:15:01;;;;;;;7.45;5.00;;;15.70;99.90;;;;;;5033570;28;20021;-76
2021/07/16 00:17:26;;;;;;;7.47;4.68;;;15.70;99.90;;;;;;5032413;28;20047;-76
2021/07/16 00:19:52;;;;;;;10.68;6.05;;;15.70;99.90;;;;;;5033834;28;20567;-76
2021/07/16 00:22:19;;;;;;;13.70;5.45;;;15.40;99.90;;;;;;5032585;28;20116;-75
2021/07/16 00:24:45;;;;;;;13.63;5.88;;;15.00;99.90;;;;;;5033468;28;20044;-75
2021/07/16 00:27:11;;;;;;;9.45;6.07;;;14.70;99.90;;;;;;5032169;28;20475;-74
2021/07/16 00:29:36;;;;;;;11.60;6.45;;;14.70;99.90;;;;;;5032310;28;20129;-75
2021/07/16 00:32:02;;;;;;;12.07;6.47;;;14.80;99.90;;;;;;5033435;28;20033;-77
2021/07/16 00:34:27;;;;;;;9.07;6.80;;;14.80;99.90;;;;;;5032044;28;20035;-76
2021/07/16 00:36:53;;;;;;;9.00;5.63;;;14.70;99.90;;;;;;5033319;28;20025;-77
2021/07/16 00:39:18;;;;;;;12.35;6.10;;;14.90;99.90;;;;;;5032120;28;20487;-76
2021/07/16 00:41:44;;;;;;;8.27;5.47;;;14.90;99.90;;;;;;5033293;28;20037;-77
2021/07/16 00:44:11;;;;;;;8.18;5.45;;;14.90;99.90;;;;;;5033090;28;20100;-76
2021/07/16 00:46:37;;;;;;;7.72;5.55;;;14.90;99.90;;;;;;5031681;28;20025;-77
2021/07/16 00:49:02;;;;;;;9.73;5.38;;;14.90;99.90;;;;;;5033249;28;20129;-77
2021/07/16 00:51:28;;;;;;;8.98;5.10;;;15.10;99.90;;;;;;5033195;28;20498;-77
2021/07/16 00:53:53;;;;;;;6.20;5.20;;;15.10;99.90;;;;;;5031828;28;20036;-77
2021/07/16 00:56:19;;;;;;;9.35;5.55;;;15.20;99.90;;;;;;5032808;28;20115;-77
2021/07/16 00:58:45;;;;;;;7.47;4.95;;;15.10;99.90;;;;;;5031723;28;20383;-77
2021/07/16 01:01:11;;;;;;;8.40;4.47;;;15.00;99.90;;;;;;5031600;28;20383;-77
2021/07/16 01:03:36;;;;;;;9.43;5.38;;;15.00;99.90;;;;;;5031549;28;20029;-75
2021/07/16 01:06:02;;;;;;;12.20;4.85;;;14.80;99.90;;;;;;5032779;28;20033;-75
2021/07/16 01:08:28;;;;;;;9.18;4.72;;;14.80;99.90;;;;;;5032752;28;20018;-75
2021/07/16 01:10:55;;;;;;;7.38;4.05;;;14.70;99.90;;;;;;5032815;28;20029;-75
2021/07/16 01:13:20;;;;;;;11.32;5.15;;;14.70;99.90;;;;;;5032744;28;20494;-75
2021/07/16 01:15:46;;;;;;;8.98;5.38;;;14.70;99.90;;;;;;5032373;28;20051;-75
2021/07/16 01:18:11;;;;;;;8.00;6.75;;;14.70;99.90;;;;;;5032645;28;20054;-76
2021/07/16 01:20:37;;;;;;;11.43;6.63;;;14.50;99.90;;;;;;5032732;28;20441;-76
2021/07/16 01:23:17;;;;;;;6.70;4.95;;;14.20;99.90;;;;;;5032557;28;20017;-77
2021/07/16 01:25:43;;;;;;;7.35;5.80;;;14.30;99.90;;;;;;5032369;28;20116;-77
2021/07/16 01:28:08;;;;;;;170.38;12.85;;;14.50;99.90;;;;;;5031466;28;20495;-77
2021/07/16 01:30:34;;;;;;;10.18;7.88;;;14.10;99.90;;;;;;5032330;28;20395;-77
2021/07/16 01:33:01;;;;;;;10.05;8.20;;;14.00;99.90;;;;;;5034611;28;20032;-77
2021/07/16 01:35:27;;;;;;;9.80;7.50;;;14.20;99.90;;;;;;5031553;28;20057;-77
2021/07/16 01:37:53;;;;;;;10.52;6.10;;;14.30;99.90;;;;;;5031451;28;20021;-77
2021/07/16 01:40:21;;;;;;;9.95;7.43;;;14.40;99.90;;;;;;5028720;28;20060;-76
2021/07/16 01:42:56;;;;;;;8.15;6.88;;;14.30;99.90;;;;;;5031051;28;20029;-76
2021/07/16 01:45:29;;;;;;;11.88;6.45;;;14.50;99.90;;;;;;5032153;28;20480;-77
2021/07/16 01:47:58;;;;;;;11.23;6.50;;;14.60;99.90;;;;;;5032371;28;20515;-76
2021/07/16 01:50:24;;;;;;;9.93;6.57;;;14.50;99.90;;;;;;5032107;28;20392;-76
2021/07/16 01:52:50;;;;;;;10.38;6.55;;;14.40;99.90;;;;;;5032142;28;20029;-76
2021/07/16 01:55:17;;;;;;;10.23;6.05;;;14.40;99.90;;;;;;5031195;28;20036;-76
2021/07/16 01:57:54;;;;;;;12.80;7.28;;;14.50;99.90;;;;;;5032048;28;20121;-76
2021/07/16 02:00:32;;;;;;;8.32;7.00;;;14.60;99.90;;;;;;5032044;28;20017;-74
2021/07/16 02:03:00;;;;;;;13.45;6.32;;;14.40;99.90;;;;;;5032095;28;20021;-75
2021/07/16 02:05:27;;;;;;;9.05;5.60;;;14.30;99.90;;;;;;5031790;28;20044;-74
2021/07/16 02:07:56;;;;;;;10.65;6.13;;;14.30;99.90;;;;;;5031783;28;20033;-75
2021/07/16 02:10:22;;;;;;;8.43;5.93;;;14.40;99.90;;;;;;5031901;28;20029;-76
2021/07/16 02:12:48;;;;;;;11.85;6.88;;;14.40;99.90;;;;;;5031885;28;20026;-74
2021/07/16 02:15:17;;;;;;;6.57;5.63;;;14.40;99.90;;;;;;5030371;28;20498;-75
2021/07/16 02:17:43;;;;;;;9.25;6.85;;;14.40;99.90;;;;;;5031790;28;20119;-74
2021/07/16 02:20:28;;;;;;;7.47;6.20;;;14.30;99.90;;;;;;5031841;28;20025;-74
2021/07/16 02:22:57;;;;;;;14.20;7.00;;;14.20;99.90;;;;;;5030552;28;20032;-74
2021/07/16 02:25:24;;;;;;;9.32;6.32;;;13.80;99.90;;;;;;5031575;28;20032;-74
2021/07/16 02:27:54;;;;;;;12.05;7.90;;;13.60;99.90;;;;;;5031780;28;20025;-74
2021/07/16 02:30:21;;;;;;;10.63;7.93;;;14.00;99.90;;;;;;5031993;28;20382;-74
2021/07/16 02:32:47;;;;;;;9.70;6.65;;;14.00;99.90;;;;;;5030406;28;20106;-74
2021/07/16 02:35:14;;;;;;;11.52;9.60;;;14.00;99.90;;;;;;5030127;28;20030;-74
2021/07/16 02:37:41;;;;;;;51.65;9.45;;;13.80;99.90;;;;;;5031535;28;20450;-76
2021/07/16 02:40:08;;;;;;;31.38;9.30;;;13.50;99.90;;;;;;5031640;28;20075;-76
2021/07/16 02:42:34;;;;;;;13.52;8.90;;;13.70;99.90;;;;;;5031484;28;20032;-76
2021/07/16 02:45:00;;;;;;;14.20;8.32;;;13.70;99.90;;;;;;5031455;28;20018;-76
2021/07/16 02:47:26;;;;;;;19.58;8.93;;;13.80;99.90;;;;;;5031473;28;20029;-76
2021/07/16 02:49:51;;;;;;;125.20;13.27;;;13.70;99.90;;;;;;5031523;28;20025;-77
2021/07/16 02:52:17;;;;;;;309.73;20.83;;;13.70;99.90;;;;;;5031490;28;20033;-76
2021/07/16 02:54:42;;;;;;;48.53;10.77;;;13.70;99.90;;;;;;5030112;28;20025;-76
2021/07/16 02:57:08;;;;;;;17.88;9.15;;;13.80;99.90;;;;;;5031302;28;20033;-76
2021/07/16 02:59:33;;;;;;;16.80;8.90;;;13.70;99.90;;;;;;5031390;28;20112;-76
2021/07/16 03:02:00;;;;;;;27.73;10.68;;;13.90;99.90;;;;;;5031480;28;20033;-77
2021/07/16 03:04:26;;;;;;;13.35;10.15;;;13.90;99.90;;;;;;5031322;28;20171;-76
2021/07/16 03:06:52;;;;;;;17.25;9.27;;;13.90;99.90;;;;;;5031424;28;20068;-76
2021/07/16 03:09:18;;;;;;;182.23;17.48;;;14.10;99.90;;;;;;5033852;28;20030;-76
2021/07/16 03:11:45;;;;;;;21.48;10.15;;;14.10;99.90;;;;;;5035138;28;20025;-76
2021/07/16 03:14:11;;;;;;;18.58;9.88;;;14.10;99.90;;;;;;5033751;28;20029;-76
2021/07/16 03:16:37;;;;;;;44.30;10.73;;;14.10;99.90;;;;;;5034912;28;20037;-76
2021/07/16 03:19:03;;;;;;;76.18;11.00;;;14.20;99.90;;;;;;5035477;28;20076;-76
2021/07/16 03:21:30;;;;;;;110.53;16.73;;;14.20;99.90;;;;;;5035102;28;20120;-75
2021/07/16 03:23:55;;;;;;;262.75;17.60;;;14.10;99.90;;;;;;5034935;28;20036;-77
2021/07/16 03:26:21;;;;;;;517.90;26.38;;;14.10;99.90;;;;;;5034524;28;20029;-76
2021/07/16 03:28:46;;;;;;;513.08;24.85;;;14.10;99.90;;;;;;5034697;28;20029;-76
2021/07/16 03:31:12;;;;;;;413.55;20.35;;;14.20;99.90;;;;;;5034686;28;20083;-76
2021/07/16 03:33:38;;;;;;;108.32;15.10;;;14.00;99.90;;;;;;5034666;28;20033;-76
2021/07/16 03:36:06;;;;;;;327.02;17.50;;;14.00;99.90;;;;;;5033609;28;20025;-75
2021/07/16 03:38:31;;;;;;;77.15;9.88;;;14.10;99.90;;;;;;5031221;28;20021;-75
2021/07/16 03:40:59;;;;;;;29.02;9.18;;;14.10;99.90;;;;;;5019583;28;20052;-76
2021/07/16 03:43:24;;;;;;;90.75;12.95;;;14.20;99.90;;;;;;5034329;28;20388;-75
2021/07/16 03:45:53;;;;;;;53.35;8.65;;;14.20;99.90;;;;;;5034216;28;20025;-75
2021/07/16 03:48:19;;;;;;;143.75;12.52;;;14.30;99.90;;;;;;5034272;28;20029;-75
2021/07/16 03:50:47;;;;;;;48.38;9.15;;;14.30;99.90;;;;;;5034231;28;20144;-76
2021/07/16 03:53:13;;;;;;;81.18;11.50;;;14.40;99.90;;;;;;5034411;28;20021;-75
2021/07/16 03:55:40;;;;;;;81.60;11.40;;;14.30;99.90;;;;;;5034104;28;20053;-75
2021/07/16 03:58:06;;;;;;;46.90;9.25;;;14.30;99.90;;;;;;5034184;28;20447;-75
2021/07/16 04:00:32;;;;;;;64.38;12.30;;;14.40;99.90;;;;;;5034158;28;20093;-75
2021/07/16 04:02:59;;;;;;;49.55;10.23;;;14.20;99.90;;;;;;5034191;28;20029;-75
2021/07/16 04:05:25;;;;;;;140.75;16.55;;;14.10;99.90;;;;;;5033860;28;20652;-75
2021/07/16 04:08:01;;;;;;;200.73;15.63;;;14.30;99.90;;;;;;5033119;28;20049;-75
2021/07/16 04:10:27;;;;;;;219.20;20.95;;;13.90;99.90;;;;;;5021708;28;20483;-77
2021/07/16 04:12:56;;;;;;;105.95;13.68;;;13.70;99.90;;;;;;5033984;28;20132;-76
2021/07/16 04:15:24;;;;;;;182.27;19.42;;;13.90;99.90;;;;;;5032237;28;20549;-76
2021/07/16 04:17:50;;;;;;;138.25;17.48;;;13.80;99.90;;;;;;5033083;28;20017;-75
2021/07/16 04:20:16;;;;;;;284.95;19.02;;;13.90;99.90;;;;;;5033781;28;20076;-75
2021/07/16 04:22:41;;;;;;;174.57;17.42;;;13.90;99.90;;;;;;5033660;28;20030;-75
2021/07/16 04:25:08;;;;;;;321.23;21.80;;;13.70;99.90;;;;;;5033568;28;20028;-76
2021/07/16 04:27:33;;;;;;;264.65;21.77;;;13.60;99.90;;;;;;5033469;28;20124;-76
2021/07/16 04:29:59;;;;;;;111.50;16.27;;;13.60;99.90;;;;;;5033625;28;20543;-75
2021/07/16 04:32:24;;;;;;;287.63;18.73;;;13.70;99.90;;;;;;5032279;28;20112;-75
2021/07/16 04:34:50;;;;;;;122.38;16.77;;;13.80;99.90;;;;;;5033376;28;20084;-75
2021/07/16 04:37:16;;;;;;;153.68;17.02;;;13.70;99.90;;;;;;5032036;28;20041;-75
2021/07/16 04:39:42;;;;;;;135.70;18.27;;;13.60;99.90;;;;;;5021878;28;20465;-75
2021/07/16 04:42:08;;;;;;;110.18;14.73;;;13.60;99.90;;;;;;5012310;28;20041;-75
2021/07/16 04:44:34;;;;;;;199.90;19.23;;;13.60;99.90;;;;;;5021093;28;20037;-75
2021/07/16 04:47:00;;;;;;;134.32;16.15;;;13.80;99.90;;;;;;5033191;28;20047;-76
2021/07/16 04:49:26;;;;;;;237.05;24.08;;;13.80;99.90;;;;;;5033258;28;20476;-75
2021/07/16 04:51:52;;;;;;;133.68;13.07;;;13.80;99.90;;;;;;5033179;28;20113;-75
2021/07/16 04:54:17;;;;;;;132.82;16.33;;;13.90;99.90;;;;;;5033136;28;20630;-75
2021/07/16 04:56:44;;;;;;;96.63;13.45;;;14.10;99.90;;;;;;5032791;28;20396;-75
2021/07/16 04:59:10;;;;;;;105.72;10.93;;;14.20;99.90;;;;;;5033124;28;20101;-75
2021/07/16 05:01:35;;;;;;;73.45;8.65;;;14.20;99.90;;;;;;5032999;28;20115;-75
2021/07/16 05:04:01;;;;;;;86.53;11.18;;;14.30;99.90;;;;;;5033035;28;20036;-75
2021/07/16 05:06:26;;;;;;;80.90;13.73;;;14.20;99.90;;;;;;5032700;28;20113;-75
2021/07/16 05:08:53;;;;;;;70.30;10.93;;;14.30;99.90;;;;;;5032937;28;20056;-75
2021/07/16 05:11:20;;;;;;;266.13;18.30;;;14.20;99.90;;;;;;5032731;28;20064;-76
2021/07/16 05:13:45;;;;;;;215.57;16.65;;;14.30;99.90;;;;;;5032762;28;20072;-75
2021/07/16 05:16:12;;;;;;;173.80;14.88;;;14.40;99.90;;;;;;5031264;28;20504;-76
2021/07/16 05:18:38;;;;;;;12.65;6.45;;;14.40;99.90;;;;;;5032611;28;20560;-76
2021/07/16 05:21:05;;;;;;;53.22;8.25;;;14.60;99.90;;;;;;5032612;28;20088;-75
2021/07/16 05:23:31;;;;;;;76.82;9.40;;;14.70;99.90;;;;;;5032645;28;20026;-75
2021/07/16 05:25:57;;;;;;;22.38;7.38;;;14.50;99.90;;;;;;5031085;28;20597;-74
2021/07/16 05:28:22;;;;;;;103.93;10.52;;;14.60;99.90;;;;;;5032154;28;20124;-74
2021/07/16 05:30:48;;;;;;;229.85;12.98;;;14.80;99.90;;;;;;5031982;28;20017;-74
2021/07/16 05:33:15;;;;;;;46.50;8.02;;;14.80;99.90;;;;;;5032475;28;20041;-74
2021/07/16 05:35:41;;;;;;;20.08;7.13;;;14.60;99.90;;;;;;5030799;28;20033;-75
2021/07/16 05:38:08;;;;;;;117.47;12.13;;;14.80;99.90;;;;;;5032244;28;20017;-75
2021/07/16 05:40:34;;;;;;;90.82;9.23;;;14.80;99.90;;;;;;5049327;28;20387;-76
2021/07/16 05:43:05;;;;;;;13.77;7.05;;;14.80;99.90;;;;;;5031028;28;20120;-75
2021/07/16 05:45:31;;;;;;;30.80;7.32;;;14.90;99.90;;;;;;5031991;28;20500;-75
2021/07/16 05:47:59;;;;;;;10.43;6.80;;;15.10;99.90;;;;;;5032183;28;20113;-75
2021/07/16 05:50:24;;;;;;;7.68;5.95;;;15.30;99.90;;;;;;5032245;28;20029;-75
2021/07/16 05:52:50;;;;;;;37.03;8.80;;;15.50;99.90;;;;;;5032106;28;20026;-75
2021/07/16 05:55:15;;;;;;;28.70;8.18;;;15.10;99.90;;;;;;5031777;28;20029;-76
2021/07/16 05:57:41;;;;;;;80.75;9.02;;;14.80;99.90;;;;;;5032059;28;20411;-74
2021/07/16 06:00:07;;;;;;;20.63;6.95;;;14.70;99.90;;;;;;5031994;28;20443;-76
2021/07/16 06:02:33;;;;;;;86.78;9.80;;;15.00;99.90;;;;;;5032066;28;20029;-75
2021/07/16 06:04:58;;;;;;;66.85;10.07;;;15.10;99.90;;;;;;5031589;28;20033;-75
2021/07/16 06:07:24;;;;;;;112.47;12.10;;;15.30;99.90;;;;;;5031659;28;20021;-75
2021/07/16 06:09:49;;;;;;;249.63;12.52;;;15.10;99.90;;;;;;5030505;28;20518;-75
2021/07/16 06:12:16;;;;;;;40.40;7.32;;;15.00;99.90;;;;;;5031922;28;20100;-75
2021/07/16 06:14:42;;;;;;;96.57;10.52;;;15.20;99.90;;;;;;5030260;28;20033;-72
2021/07/16 06:17:08;;;;;;;71.05;10.82;;;15.30;99.90;;;;;;5031160;28;20029;-73
2021/07/16 06:19:34;;;;;;;312.50;19.23;;;15.10;99.90;;;;;;5030393;28;20049;-75
2021/07/16 06:22:00;;;;;;;106.65;10.35;;;15.10;99.90;;;;;;5031681;28;20052;-75
2021/07/16 06:24:25;;;;;;;144.07;12.00;;;15.20;99.90;;;;;;5031369;28;20109;-75
2021/07/16 06:26:51;;;;;;;426.13;28.50;;;15.20;99.90;;;;;;5030330;28;20403;-75
2021/07/16 06:29:16;;;;;;;280.58;19.80;;;15.00;99.90;;;;;;5031591;28;20021;-75
2021/07/16 06:31:42;;;;;;;140.20;14.90;;;14.70;99.90;;;;;;5031728;28;20087;-75
2021/07/16 06:34:07;;;;;;;175.13;16.52;;;14.70;99.90;;;;;;5030179;28;20030;-75
2021/07/16 06:36:33;;;;;;;265.70;22.67;;;15.30;99.90;;;;;;5031061;28;20479;-75
2021/07/16 06:38:59;;;;;;;20.00;9.10;;;15.10;99.90;;;;;;5031457;28;20372;-75
2021/07/16 06:41:24;;;;;;;39.33;10.73;;;15.50;99.90;;;;;;5033908;28;20022;-75
2021/07/16 06:43:50;;;;;;;15.82;8.98;;;15.70;99.90;;;;;;5034287;28;20033;-75
2021/07/16 06:46:16;;;;;;;10.27;9.15;;;16.00;99.90;;;;;;5034037;28;20032;-75
2021/07/16 06:48:43;;;;;;;8.57;7.72;;;16.10;99.90;;;;;;5033945;28;20053;-75
2021/07/16 06:51:09;;;;;;;13.85;8.60;;;16.40;99.90;;;;;;5034057;28;20103;-75
2021/07/16 06:53:35;;;;;;;12.55;8.23;;;16.70;99.90;;;;;;5034042;28;20025;-75
2021/07/16 06:56:03;;;;;;;8.38;7.38;;;16.50;99.90;;;;;;5035066;28;20051;-75
2021/07/16 06:58:29;;;;;;;10.63;7.50;;;16.60;99.90;;;;;;5035113;28;20025;-75
2021/07/16 07:00:54;;;;;;;10.60;8.27;;;16.90;99.90;;;;;;5035205;28;20036;-75
2021/07/16 07:03:25;;;;;;;17.10;9.98;;;16.90;99.90;;;;;;5033700;28;20033;-75
2021/07/16 07:05:56;;;;;;;9.77;8.15;;;16.60;99.90;;;;;;5034901;28;20487;-75
2021/07/16 07:08:22;;;;;;;12.02;9.40;;;16.60;99.90;;;;;;5035063;28;20034;-75
2021/07/16 07:10:49;;;;;;;11.30;9.88;;;16.70;99.90;;;;;;5033748;28;20029;-75
2021/07/16 07:13:15;;;;;;;9.23;8.32;;;16.60;99.90;;;;;;5034915;28;20075;-75
2021/07/16 07:15:40;;;;;;;9.45;8.02;;;16.80;99.90;;;;;;5034725;28;20030;-75
2021/07/16 07:18:06;;;;;;;11.23;9.73;;;17.30;99.90;;;;;;5034706;28;20384;-75
2021/07/16 07:20:33;;;;;;;9.65;8.73;;;17.50;99.90;;;;;;5034680;28;20076;-75
2021/07/16 07:22:59;;;;;;;9.20;8.27;;;17.20;99.90;;;;;;5033748;28;20088;-75
2021/07/16 07:25:25;;;;;;;10.80;9.73;;;17.50;99.90;;;;;;5046124;28;20036;-75
2021/07/16 07:27:51;;;;;;;10.43;8.52;;;17.00;99.90;;;;;;5036959;28;20030;-75
2021/07/16 07:30:17;;;;;;;8.50;7.63;;;17.00;99.90;;;;;;5034683;28;20105;-75
2021/07/16 07:32:43;;;;;;;7.88;7.13;;;17.40;99.90;;;;;;5034644;28;20040;-75
2021/07/16 07:35:09;;;;;;;9.32;8.20;;;17.60;99.90;;;;;;5034318;28;20045;-75
2021/07/16 07:37:34;;;;;;;6.53;5.93;;;17.90;99.90;;;;;;5034355;28;20052;-74
2021/07/16 07:40:01;;;;;;;9.82;8.23;;;18.40;99.90;;;;;;5020505;28;20065;-75
2021/07/16 07:42:26;;;;;;;9.35;8.40;;;18.40;99.90;;;;;;5031653;28;20435;-76
2021/07/16 07:44:53;;;;;;;7.70;7.00;;;18.00;99.90;;;;;;5034457;28;20029;-75
2021/07/16 07:47:20;;;;;;;7.53;6.75;;;17.50;99.90;;;;;;5034289;28;20030;-75
2021/07/16 07:49:46;;;;;;;6.72;5.90;;;17.50;99.90;;;;;;5033284;28;20028;-77
2021/07/16 07:52:11;;;;;;;5.60;5.10;;;17.60;99.90;;;;;;5033419;28;20034;-75
2021/07/16 07:54:37;;;;;;;5.55;5.05;;;17.80;99.90;;;;;;5032746;28;20110;-74
2021/07/16 07:57:03;;;;;;;6.63;5.68;;;18.00;99.90;;;;;;5034119;28;20033;-75
2021/07/16 07:59:28;;;;;;;11.90;7.55;;;18.30;99.90;;;;;;5034248;28;20017;-75
2021/07/16 08:01:54;;;;;;;6.63;5.00;;;18.50;99.90;;;;;;5032792;28;20080;-75
2021/07/16 08:04:19;;;;;;;6.18;5.20;;;18.40;99.90;;;;;;5033902;28;20037;-75
2021/07/16 08:06:45;;;;;;;5.38;4.95;;;18.50;99.90;;;;;;5033870;28;20396;-75
2021/07/16 08:09:10;;;;;;;5.22;4.72;;;18.60;99.90;;;;;;5033899;28;20037;-76
2021/07/16 08:11:36;;;;;;;6.72;5.57;;;18.60;99.90;;;;;;5032670;28;20032;-75
2021/07/16 08:14:02;;;;;;;6.95;5.60;;;18.80;99.90;;;;;;5033897;28;20079;-75
2021/07/16 08:16:28;;;;;;;5.40;5.00;;;18.70;99.90;;;;;;5032203;28;20398;-75
2021/07/16 08:18:54;;;;;;;5.32;4.82;;;18.80;99.90;;;;;;5032518;28;20022;-76
2021/07/16 08:21:23;;;;;;;4.82;4.43;;;18.90;99.90;;;;;;5032523;28;20117;-75
2021/07/16 08:23:50;;;;;;;4.93;4.43;;;19.00;99.90;;;;;;5032500;28;20075;-77
2021/07/16 08:26:18;;;;;;;5.55;5.03;;;19.20;99.90;;;;;;5033500;28;20048;-76
2021/07/16 08:28:44;;;;;;;4.35;3.95;;;19.20;99.90;;;;;;5033577;28;20506;-77
2021/07/16 08:31:09;;;;;;;4.82;4.43;;;19.20;99.90;;;;;;5032361;28;20034;-77
2021/07/16 08:33:35;;;;;;;4.45;4.05;;;19.20;99.90;;;;;;5033605;28;20128;-76
2021/07/16 08:36:00;;;;;;;5.35;4.78;;;19.30;99.90;;;;;;5033196;28;20549;-77
2021/07/16 08:38:26;;;;;;;4.25;3.85;;;19.30;99.90;;;;;;5033360;28;20071;-77
2021/07/16 08:40:52;;;;;;;4.30;3.90;;;19.40;99.90;;;;;;5033393;28;20029;-76
2021/07/16 08:43:20;;;;;;;3.85;3.55;;;19.70;99.90;;;;;;5033450;28;20052;-76
2021/07/16 08:45:46;;;;;;;4.43;3.97;;;19.70;99.90;;;;;;5033243;28;20026;-77
2021/07/16 08:48:13;;;;;;;5.90;3.83;;;19.80;99.90;;;;;;5032552;28;20036;-77
2021/07/16 08:50:39;;;;;;;4.75;3.30;;;19.90;99.90;;;;;;5032177;28;20025;-75
2021/07/16 08:53:04;;;;;;;3.20;2.90;;;20.00;99.90;;;;;;5033115;28;20031;-76
2021/07/16 08:55:34;;;;;;;5.78;3.85;;;20.10;99.90;;;;;;5032927;28;20026;-75
2021/07/16 08:58:00;;;;;;;4.20;3.78;;;20.40;99.90;;;;;;5033167;28;20029;-76
2021/07/16 09:00:25;;;;;;;4.25;3.60;;;20.40;99.90;;;;;;5033022;28;20029;-76
2021/07/16 09:02:58;;;;;;;3.55;3.25;;;20.30;99.90;;;;;;5031985;28;20025;-76
2021/07/16 09:05:36;;;;;;;3.53;3.17;;;20.50;99.90;;;;;;5032676;28;20030;-76
2021/07/16 09:08:02;;;;;;;4.15;3.58;;;20.80;99.90;;;;;;5032982;28;20056;-76
2021/07/16 09:10:28;;;;;;;4.10;3.42;;;20.90;99.90;;;;;;5032923;28;20083;-76
2021/07/16 09:13:01;;;;;;;3.35;3.05;;;21.30;99.90;;;;;;5031579;28;20025;-78
2021/07/16 09:15:28;;;;;;;3.45;3.15;;;21.20;99.90;;;;;;5022137;28;20075;-76
2021/07/16 09:18:13;;;;;;;4.43;3.63;;;21.20;99.90;;;;;;5031263;28;20395;-76
2021/07/16 09:20:39;;;;;;;4.18;3.38;;;21.30;99.90;;;;;;5031596;28;20025;-77
2021/07/16 09:23:16;;;;;;;3.45;3.00;;;21.20;99.90;;;;;;5031489;28;20076;-76
2021/07/16 09:25:43;;;;;;;3.75;3.22;;;21.30;99.90;;;;;;5032537;28;20028;-76
2021/07/16 09:28:26;;;;;;;3.60;3.30;;;21.40;99.90;;;;;;5031283;28;20484;-76
2021/07/16 09:30:53;;;;;;;2.72;2.53;;;21.50;99.90;;;;;;5031195;28;20116;-76
2021/07/16 09:33:19;;;;;;;3.35;2.58;;;21.80;99.90;;;;;;5032504;28;20083;-77
2021/07/16 09:35:45;;;;;;;2.88;2.60;;;21.80;99.90;;;;;;5032629;28;20025;-77
2021/07/16 09:38:13;;;;;;;2.53;2.33;;;21.80;99.90;;;;;;5032367;28;20026;-77
2021/07/16 09:40:52;;;;;;;3.10;2.55;;;21.60;99.90;;;;;;5032192;28;20495;-76
2021/07/16 09:43:20;;;;;;;3.10;2.67;;;21.80;99.90;;;;;;5030842;28;20072;-76
2021/07/16 09:45:51;;;;;;;4.35;2.88;;;22.00;99.90;;;;;;5032043;28;20048;-76
2021/07/16 09:48:43;;;;;;;3.17;2.88;;;22.40;99.90;;;;;;5032124;28;20434;-77
2021/07/16 09:51:26;;;;;;;3.45;2.67;;;22.40;99.90;;;;;;5015582;28;20048;-77
2021/07/16 09:53:54;;;;;;;3.25;2.95;;;22.50;99.90;;;;;;5032109;28;20025;-76
2021/07/16 09:56:25;;;;;;;3.58;3.00;;;22.30;99.90;;;;;;5031772;28;20025;-76
2021/07/16 09:59:03;;;;;;;4.78;3.40;;;22.50;99.90;;;;;;5032441;28;20025;-76
2021/07/16 10:01:30;;;;;;;4.20;3.50;;;22.70;99.90;;;;;;5031606;28;20029;-76
2021/07/16 10:03:59;;;;;;;5.72;3.65;;;22.50;99.90;;;;;;5031885;28;20033;-76
2021/07/16 10:06:29;;;;;;;4.65;3.58;;;22.60;99.90;;;;;;5030270;28;20532;-76
2021/07/16 10:08:58;;;;;;;5.00;3.50;;;22.70;99.90;;;;;;5030581;28;20033;-76
2021/07/16 10:11:26;;;;;;;4.22;3.55;;;22.60;99.90;;;;;;5031804;28;20101;-76
2021/07/16 10:13:53;;;;;;;4.20;3.58;;;22.60;99.90;;;;;;5031868;28;20036;-76
2021/07/16 10:16:19;;;;;;;4.50;3.95;;;23.00;99.90;;;;;;5031146;28;20484;-76
2021/07/16 10:18:45;;;;;;;4.63;3.47;;;23.10;99.90;;;;;;5031713;28;20080;-76
2021/07/16 10:21:10;;;;;;;4.57;3.33;;;23.20;99.90;;;;;;5031730;28;20476;-76
2021/07/16 10:23:40;;;;;;;4.60;2.90;;;23.50;99.90;;;;;;5031727;28;20100;-76
2021/07/16 10:26:11;;;;;;;7.07;3.97;;;23.60;99.90;;;;;;5031472;28;20361;-76
2021/07/16 10:28:41;;;;;;;3.30;3.00;;;23.40;99.90;;;;;;5031668;28;20067;-76
2021/07/16 10:31:35;;;;;;;3.50;3.20;;;23.30;99.90;;;;;;5031622;28;20105;-76
2021/07/16 10:34:10;;;;;;;3.65;3.30;;;23.70;99.90;;;;;;5031468;28;20506;-76
2021/07/16 10:36:41;;;;;;;5.00;3.30;;;23.70;99.90;;;;;;5030074;28;20032;-76
2021/07/16 10:39:12;;;;;;;3.92;3.55;;;23.60;99.90;;;;;;5030200;28;20542;-76
2021/07/16 10:41:40;;;;;;;3.75;3.42;;;23.90;99.90;;;;;;5031509;28;20066;-76
2021/07/16 10:44:11;;;;;;;3.72;3.10;;;24.10;99.90;;;;;;5031492;28;20112;-76
2021/07/16 10:46:38;;;;;;;3.08;2.78;;;24.60;99.90;;;;;;5029943;28;20112;-76
2021/07/16 10:49:06;;;;;;;3.83;2.83;;;24.30;99.90;;;;;;5031287;28;20079;-76
2021/07/16 10:51:33;;;;;;;4.43;3.30;;;24.00;99.90;;;;;;5031418;28;20546;-76
2021/07/16 10:54:01;;;;;;;3.40;3.10;;;24.10;99.90;;;;;;5031384;28;20112;-77
2021/07/16 10:56:38;;;;;;;3.38;2.75;;;24.50;99.90;;;;;;5031051;28;20472;-76
2021/07/16 10:59:04;;;;;;;3.40;3.10;;;24.80;99.90;;;;;;5019058;28;20660;-77
2021/07/16 11:01:34;;;;;;;3.42;2.60;;;24.90;99.90;;;;;;5031349;28;20021;-77
2021/07/16 11:04:01;;;;;;;3.25;2.95;;;25.30;99.90;;;;;;5031299;28;20048;-76
2021/07/16 11:06:51;;;;;;;3.97;2.40;;;25.30;99.90;;;;;;5031177;28;20021;-76
2021/07/16 11:09:40;;;;;;;2.90;2.70;;;25.80;99.90;;;;;;5030028;28;20022;-76
2021/07/16 11:12:26;;;;;;;4.28;3.13;;;25.80;99.90;;;;;;5019041;28;20026;-76
2021/07/16 11:14:52;;;;;;;3.05;2.78;;;25.70;99.90;;;;;;5031149;28;20113;-76
2021/07/16 11:17:26;;;;;;;6.55;2.97;;;25.00;99.90;;;;;;5031060;28;20044;-76
2021/07/16 11:20:26;;;;;;;3.00;2.50;;;24.20;99.90;;;;;;5029814;28;20100;-77
2021/07/16 11:23:04;;;;;;;3.47;3.17;;;24.40;99.90;;;;;;5033993;28;20060;-76
2021/07/16 11:25:31;;;;;;;2.63;2.40;;;24.80;99.90;;;;;;5028588;28;20036;-76
2021/07/16 11:27:57;;;;;;;3.28;2.97;;;25.10;99.90;;;;;;5041779;28;20109;-76
2021/07/16 11:30:24;;;;;;;3.40;3.00;;;25.10;99.90;;;;;;5045882;28;20020;-76
2021/07/16 11:32:49;;;;;;;4.25;2.88;;;25.40;99.90;;;;;;5044527;28;20444;-75
2021/07/16 11:35:15;;;;;;;3.38;3.00;;;25.50;99.90;;;;;;5043516;28;20045;-75
2021/07/16 11:37:43;;;;;;;3.00;2.70;;;25.40;99.90;;;;;;5044587;28;20041;-77
2021/07/16 11:40:26;;;;;;;2.85;2.53;;;25.50;99.90;;;;;;5045241;28;20523;-77
2021/07/16 11:42:59;;;;;;;3.35;3.05;;;26.00;99.90;;;;;;5038035;28;20025;-75
2021/07/16 11:45:25;;;;;;;2.85;2.55;;;26.10;99.90;;;;;;5037446;28;20013;-76
2021/07/16 11:47:52;;;;;;;2.97;2.78;;;26.00;99.90;;;;;;5048423;28;20017;-76
2021/07/16 11:50:18;;;;;;;2.47;2.28;;;26.20;99.90;;;;;;5041987;28;20031;-76
2021/07/16 11:52:47;;;;;;;3.83;2.95;;;26.60;99.90;;;;;;5045058;28;20020;-76
2021/07/16 11:55:18;;;;;;;3.20;2.50;;;26.20;99.90;;;;;;5045385;28;20013;-76
2021/07/16 11:58:01;;;;;;;2.50;2.30;;;26.10;99.90;;;;;;5045522;28;20021;-76
2021/07/16 12:00:35;;;;;;;3.78;2.60;;;26.30;99.90;;;;;;5046123;28;20009;-75
2021/07/16 12:03:12;;;;;;;3.03;2.60;;;26.40;99.90;;;;;;5045473;28;20024;-76
2021/07/16 12:05:52;;;;;;;2.60;2.40;;;26.20;99.90;;;;;;5040437;28;20037;-78
2021/07/16 12:08:19;;;;;;;2.40;2.15;;;26.70;99.90;;;;;;5044890;28;20087;-77
2021/07/16 12:10:44;;;;;;;2.33;2.13;;;26.60;99.90;;;;;;5045723;28;20474;-76
2021/07/16 12:13:10;;;;;;;3.13;2.55;;;26.20;99.90;;;;;;5043282;28;20090;-75
2021/07/16 12:15:35;;;;;;;2.63;2.42;;;26.00;99.90;;;;;;5045228;28;20040;-76
2021/07/16 12:18:02;;;;;;;3.67;2.30;;;26.60;99.90;;;;;;5044980;28;20017;-76
2021/07/16 12:20:33;;;;;;;2.63;2.15;;;27.00;99.90;;;;;;5040328;28;20021;-77
2021/07/16 12:23:00;;;;;;;2.75;2.20;;;27.30;99.90;;;;;;5044858;28;20025;-76
2021/07/16 12:25:26;;;;;;;2.53;2.28;;;27.00;99.90;;;;;;5029201;28;20056;-76
2021/07/16 12:28:09;;;;;;;2.65;2.30;;;26.90;99.90;;;;;;5042875;28;20014;-76
2021/07/16 12:30:36;;;;;;;2.58;1.92;;;27.00;99.90;;;;;;5031930;28;20017;-76
2021/07/16 12:33:04;;;;;;;2.30;2.10;;;27.10;99.90;;;;;;5041925;28;20096;-76
2021/07/16 12:35:30;;;;;;;2.83;2.42;;;26.50;99.90;;;;;;5041385;28;20029;-76
2021/07/16 12:38:02;;;;;;;2.28;2.10;;;26.30;99.90;;;;;;5037637;28;20383;-76
2021/07/16 12:40:28;;;;;;;2.50;2.03;;;26.70;99.90;;;;;;5043052;28;20372;-76